Oak Hill, Virginia
Current Conditions -  °F | °C
As of 10:52 AM on Wednesday 22 Oct 2014 (Local Time) from KIAD Reporting Station
Light Rain Light Rain  
Wind Chill: 54°   Ceiling: 3000
Heat Index: 54°   Visibility: 10mi
Dew Point: 48°   Wind: 15mph
Humidity: 80%   Direction: 340°NNW
Pressure: 29.95"   Gusts: NA
Location:  38.9257°N, 77.398°W
Report Text: KIAD 221452Z 34013KT 10SM -RA FEW019 BKN030 12/09 A2995 RMK AO2 RAB50 SLP142 P0000 60011 T01220089 51007
Loading
Personal Weather Stations






























Interactive Weather Map
Tropical Storm Tracking
New forecast layout! Learn more

10-Day Weather Forecast

Advertisements
Track Severe Weather on mobile